Flight Track Log - Related Links

Times and Time Zones

All times are in EDT time to prevent confusion due to time zone crossing. See the ACA402 flight status page for this flight to view local times or setup timezone preferences in your user account.

Time Position Orientation Groundspeed Altitude Reporting Facility
EDT Latitude Longitude Course Direction KTS MPH feet Rate Location/Type
08:15AM 43.6833 -79.5333 106° East 160 184 2,800  Level Toronto Center
08:16AM 43.7167 -79.4667 55° Northeast 220 253 4,800 2,400 Climbing Toronto Center
08:17AM 43.8525 -79.0232 71° East  Level FlightAware Approximate
08:17AM 43.7167 -79.3500 90° East 290 334 7,600  Level Toronto Center
08:18AM 43.8909 -78.8698 71° East  Level FlightAware Approximate
08:18AM 43.6833 -79.2333 112° Southeast 310 357 10,400  Level Toronto Center
08:19AM 43.9293 -78.7164 71° East  Level FlightAware Approximate
08:19AM 43.6833 -79.1333 90° East 350 403 11,900  Level Toronto Center
08:20AM 43.9016 -78.5857 106° East  Level FlightAware Approximate
08:20AM 43.6833 -78.9667 90° East 380 437 14,500  Level Toronto Center
08:21AM 43.6833 -78.8333 90° East 400 460 16,600 2,000 Climbing Toronto Center
08:22AM 43.7000 -78.6667 82° East 410 472 18,500 1,900 Climbing Toronto Center
08:23AM 43.7333 -78.5333 71° East 410 472 20,400 1,750 Climbing Toronto Center
08:24AM 43.7667 -78.3667 74° East 420 483 22,000 1,600 Climbing Toronto Center
08:25AM 43.8167 -78.2000 67° East 440 506 23,600 1,600 Climbing Toronto Center
08:26AM 43.8667 -78.0667 62° Northeast 450 518 25,200 1,550 Climbing Toronto Center
08:27AM 43.9333 -77.8667 65° Northeast 460 529 26,700 1,400 Climbing Toronto Center
08:28AM 43.9833 -77.7333 62° Northeast 470 541 28,000 1,250 Climbing Toronto Center
08:29AM 44.0667 -77.5667 55° Northeast 470 541 29,200 1,100 Climbing Toronto Center
08:30AM 44.1333 -77.4000 61° Northeast 480 552 30,200 1,176 Climbing Toronto Center
08:30AM 44.1833 -77.3167 50° Northeast 480 552 31,200 1,353 Climbing Montreal Center
08:31AM 44.2333 -77.1667 65° Northeast 480 552 32,500 1,412 Climbing Montreal Center
08:32AM 44.3000 -77.0000 61° Northeast 470 541 34,000 1,160 Climbing Montreal Center
08:33AM 44.3667 -76.8500 58° Northeast 470 541 34,800 500 Climbing Montreal Center
08:34AM 44.4333 -76.6667 63° Northeast 480 552 35,000 100 Climbing Montreal Center
08:35AM 44.5000 -76.5333 55° Northeast 470 541 35,000  Level Montreal Center
08:36AM 44.5667 -76.3667 61° Northeast 470 541 35,000  Level Montreal Center
08:37AM 44.6167 -76.2000 67° East 470 541 35,000  Level Montreal Center
08:38AM 44.6833 -76.0333 61° Northeast 470 541 35,000 -350 Level Montreal Center
08:39AM 44.7500 -75.8667 61° Northeast 470 541 34,300 -850 Descending Montreal Center
08:40AM 44.8167 -75.7167 58° Northeast 470 541 33,300 -1,500 Descending Montreal Center
08:41AM 44.8667 -75.5500 67° East 480 552 31,300 -2,150 Descending Montreal Center
08:42AM 44.9167 -75.3500 70° East 460 529 29,000 -2,150 Descending Montreal Center
08:43AM 44.9667 -75.2167 62° Northeast 440 506 27,000 -2,000 Descending Montreal Center
08:44AM 45.0000 -75.0667 73° East 430 495 25,000 -2,050 Descending Montreal Center
08:45AM 45.0500 -74.9000 67° East 410 472 22,900 -2,050 Descending Montreal Center
08:46AM 45.1000 -74.7500 65° Northeast 410 472 20,900 -2,050 Descending Montreal Center
08:47AM 45.1500 -74.5833 67° East 400 460 18,800 -2,050 Descending Montreal Center
08:48AM 45.1833 -74.4667 68° East 390 449 16,800 -1,950 Descending Montreal Center
08:49AM 45.2333 -74.3333 62° Northeast 370 426 14,900 -1,850 Descending Montreal Center
08:50AM 45.2833 -74.2000 62° Northeast 350 403 13,100 -1,700 Descending Montreal Center
08:51AM 45.3333 -74.1167 50° Northeast 340 391 11,500 -1,550 Descending Montreal Center
08:52AM 45.3833 -73.9833 62° Northeast 320 368 10,000 -1,450 Descending Montreal Center
08:53AM 45.4333 -73.9167 43° Northeast 290 334 8,600 -1,500 Descending Montreal Center
08:54AM 45.5000 -73.8333 41° Northeast 290 334 7,000 -1,750 Descending Montreal Center
08:55AM 45.5667 -73.7667 35° Northeast 270 311 5,100 -1,950 Descending Montreal Center
08:56AM 45.6167 -73.7000 43° Northeast 260 299 3,100 -1,050 Descending Montreal Center
08:57AM 45.6500 -73.6167 60° Northeast 220 253 3,000 -50 Descending Montreal Center
08:58AM 45.6167 -73.5667 134° Southeast 230 265 3,000 -200 Level Montreal Center
08:59AM 45.5667 -73.6000 205° Southwest 190 219 2,600 -700 Descending Montreal Center
09:00AM 45.5333 -73.6500 226° Southwest 180 207 1,600 -950 Descending Montreal Center
09:01AM 45.4833 -73.7000 215° Southwest 160 184 700 -750 Descending Montreal Center
09:02AM 45.4667 -73.7500 245° Southwest 140 161 100 -300 Descending Montreal Center
09:03AM 45.4500 -73.7500 180° South 30 35 100  Level Montreal Center

Login

Don't have an account? Register now (free) for customized features, flight alerts, and more!